Time;durP1;ratioP1;P1;durP2;ratioP2;P2;SDS_P1;SDS_P2;PMS_P1;PMS_P2;Temp;Humidity;BMP_temperature;BMP_pressure;BME280_temperature;BME280_humidity;BME280_pressure;Samples;Min_cycle;Max_cycle;Signal;HPM_P1;HPM_P2
2023/11/21 00:01:25;;;;;;;26.63;12.47;;;9.00;1.00;;;;;;5066829;28;20209;-85
2023/11/21 00:03:54;;;;;;;25.53;12.70;;;9.00;1.00;;;;;;5063197;28;20276;-84
2023/11/21 00:06:20;;;;;;;19.43;13.20;;;9.00;1.00;;;;;;5060238;28;20629;-85
2023/11/21 00:08:45;;;;;;;17.27;13.20;;;9.00;1.00;;;;;;5062382;28;20539;-85
2023/11/21 00:11:11;;;;;;;24.00;12.27;;;9.00;1.00;;;;;;5060944;28;20220;-84
2023/11/21 00:13:37;;;;;;;19.63;12.57;;;9.10;1.00;;;;;;5065299;28;20178;-85
2023/11/21 00:16:04;;;;;;;17.50;11.90;;;9.10;1.00;;;;;;5063812;28;20450;-84
2023/11/21 00:18:29;;;;;;;15.30;12.00;;;9.10;1.00;;;;;;5063537;28;20178;-84
2023/11/21 00:20:55;;;;;;;20.23;12.70;;;9.20;1.00;;;;;;5064557;28;20496;-84
2023/11/21 00:23:20;;;;;;;19.83;12.80;;;9.20;1.00;;;;;;5062480;28;20214;-84
2023/11/21 00:25:46;;;;;;;19.10;12.00;;;9.20;1.00;;;;;;5061801;28;20292;-87
2023/11/21 00:28:15;;;;;;;28.33;13.70;;;9.20;1.00;;;;;;5064357;28;20193;-85
2023/11/21 00:30:40;;;;;;;19.37;12.80;;;9.20;1.00;;;;;;5065527;28;20260;-87
2023/11/21 00:33:06;;;;;;;17.23;13.30;;;9.10;1.00;;;;;;5060170;28;21040;-84
2023/11/21 00:35:31;;;;;;;21.27;14.40;;;9.20;1.00;;;;;;5054856;28;20660;-84
2023/11/21 00:37:58;;;;;;;23.00;15.77;;;9.10;1.00;;;;;;5069721;28;20197;-84
2023/11/21 00:40:24;;;;;;;21.43;16.13;;;9.10;1.00;;;;;;5065517;28;20181;-83
2023/11/21 00:42:50;;;;;;;20.20;15.10;;;9.10;1.00;;;;;;5060855;28;20983;-85
2023/11/21 00:45:18;;;;;;;22.23;14.37;;;9.20;1.00;;;;;;5072119;28;20467;-85
2023/11/21 00:47:44;;;;;;;22.70;15.77;;;9.20;1.00;;;;;;5066756;28;20185;-84
2023/11/21 00:50:10;;;;;;;26.53;15.77;;;9.20;1.00;;;;;;5060693;28;20448;-85
2023/11/21 00:52:35;;;;;;;21.33;14.40;;;9.30;1.00;;;;;;5057101;28;20213;-85
2023/11/21 00:55:02;;;;;;;21.30;12.77;;;9.30;1.00;;;;;;5062515;28;20177;-84
2023/11/21 00:57:28;;;;;;;20.90;12.40;;;9.30;1.00;;;;;;5064297;28;20196;-85
2023/11/21 00:59:54;;;;;;;15.60;12.30;;;9.30;1.00;;;;;;5074508;28;20522;-84
2023/11/21 01:02:25;;;;;;;21.10;13.53;;;9.40;1.00;;;;;;5076997;28;20194;-84
2023/11/21 01:04:51;;;;;;;19.40;12.07;;;9.40;1.00;;;;;;5060494;28;20495;-85
2023/11/21 01:07:20;;;;;;;20.03;12.73;;;9.40;1.00;;;;;;5073069;28;20430;-84
2023/11/21 01:09:45;;;;;;;20.87;12.80;;;9.40;1.00;;;;;;5067495;28;20174;-84
2023/11/21 01:12:11;;;;;;;20.53;12.87;;;9.50;1.00;;;;;;5068544;28;20448;-87
2023/11/21 01:14:36;;;;;;;23.33;12.53;;;9.50;1.00;;;;;;5072333;28;20193;-85
2023/11/21 01:17:04;;;;;;;18.97;12.40;;;9.50;1.00;;;;;;5059280;28;20182;-84
2023/11/21 01:19:29;;;;;;;25.43;13.63;;;9.50;1.00;;;;;;5065039;28;20189;-84
2023/11/21 01:21:55;;;;;;;23.83;12.83;;;9.50;1.00;;;;;;5055503;28;20510;-84
2023/11/21 01:24:21;;;;;;;23.57;14.73;;;9.50;1.00;;;;;;5052947;28;20232;-85
2023/11/21 01:26:46;;;;;;;30.97;14.53;;;9.50;1.00;;;;;;5055321;28;20212;-84
2023/11/21 01:29:12;;;;;;;21.13;15.03;;;9.50;1.00;;;;;;5061751;28;20191;-85
2023/11/21 01:31:37;;;;;;;28.30;15.40;;;9.50;1.00;;;;;;5060752;28;20197;-84
2023/11/21 01:34:04;;;;;;;22.17;14.70;;;9.50;1.00;;;;;;5062947;28;20197;-84
2023/11/21 01:36:34;;;;;;;29.03;14.40;;;9.60;1.00;;;;;;5061011;28;21057;-84
2023/11/21 01:39:00;;;;;;;18.67;13.40;;;9.60;1.00;;;;;;5060316;28;20427;-85
2023/11/21 01:41:28;;;;;;;21.00;15.20;;;9.60;1.00;;;;;;5062220;28;20555;-84
2023/11/21 01:43:54;;;;;;;26.73;16.50;;;9.60;1.00;;;;;;5058445;28;20193;-84
2023/11/21 01:46:21;;;;;;;27.83;18.10;;;9.60;1.00;;;;;;5060567;28;20433;-84
2023/11/21 01:48:48;;;;;;;20.30;14.10;;;9.60;1.00;;;;;;5063208;28;20443;-84
2023/11/21 01:51:14;;;;;;;26.03;14.50;;;9.50;1.00;;;;;;5056726;28;20448;-86
2023/11/21 01:53:40;;;;;;;26.40;15.00;;;9.50;1.00;;;;;;5062961;28;20446;-84
2023/11/21 01:56:07;;;;;;;22.47;14.40;;;9.50;1.00;;;;;;5060368;28;20439;-83
2023/11/21 01:58:33;;;;;;;24.83;14.77;;;9.50;1.00;;;;;;5062418;28;20439;-84
2023/11/21 02:00:59;;;;;;;23.17;14.87;;;9.50;1.00;;;;;;5059880;28;20436;-84
2023/11/21 02:03:26;;;;;;;23.03;13.73;;;9.50;1.00;;;;;;5064175;28;20227;-84
2023/11/21 02:05:53;;;;;;;22.20;14.47;;;9.50;1.00;;;;;;5062140;28;20253;-85
2023/11/21 02:08:19;;;;;;;28.27;13.63;;;9.50;1.00;;;;;;5056543;28;20502;-84
2023/11/21 02:10:45;;;;;;;23.00;14.33;;;9.50;1.00;;;;;;5063610;28;20530;-84
2023/11/21 02:13:11;;;;;;;29.47;16.93;;;9.50;1.00;;;;;;5067793;28;20450;-84
2023/11/21 02:15:38;;;;;;;22.23;14.87;;;9.50;1.00;;;;;;5063748;28;20436;-85
2023/11/21 02:18:05;;;;;;;23.97;15.57;;;9.50;1.00;;;;;;5073678;28;20187;-84
2023/11/21 02:20:34;;;;;;;26.33;15.37;;;9.60;1.00;;;;;;5067622;28;20436;-84
2023/11/21 02:23:00;;;;;;;29.97;17.10;;;9.50;1.00;;;;;;5071889;28;21071;-84
2023/11/21 02:25:33;;;;;;;21.33;14.97;;;9.50;1.00;;;;;;5070754;28;20464;-85
2023/11/21 02:28:00;;;;;;;26.40;16.63;;;9.50;1.00;;;;;;5068987;28;20424;-85
2023/11/21 02:30:27;;;;;;;27.07;16.77;;;9.50;1.00;;;;;;5066357;28;20439;-84
2023/11/21 02:32:53;;;;;;;28.50;19.00;;;9.60;1.00;;;;;;5058213;28;20443;-84
2023/11/21 02:35:21;;;;;;;33.87;20.57;;;9.50;1.00;;;;;;5063187;28;20436;-84
2023/11/21 02:37:47;;;;;;;44.90;22.30;;;9.50;1.00;;;;;;5064322;28;20972;-84
2023/11/21 02:40:12;;;;;;;42.13;22.27;;;9.50;1.00;;;;;;5061673;28;20443;-84
2023/11/21 02:42:40;;;;;;;45.23;24.33;;;9.60;1.00;;;;;;5060989;28;20448;-85
2023/11/21 02:45:07;;;;;;;45.17;23.63;;;9.60;1.00;;;;;;5060431;28;20657;-85
2023/11/21 02:47:33;;;;;;;56.37;27.50;;;9.60;1.00;;;;;;5060396;28;20526;-84
2023/11/21 02:49:59;;;;;;;56.73;25.97;;;9.60;1.00;;;;;;5057953;28;20857;-85
2023/11/21 02:52:24;;;;;;;46.40;25.50;;;9.60;1.00;;;;;;5064365;28;20460;-85
2023/11/21 02:54:51;;;;;;;42.13;24.73;;;9.60;1.00;;;;;;5062359;28;20260;-84
2023/11/21 02:57:16;;;;;;;48.70;24.47;;;9.60;1.00;;;;;;5055632;28;20186;-85
2023/11/21 02:59:42;;;;;;;46.03;24.70;;;9.60;1.00;;;;;;5056298;28;20432;-84
2023/11/21 03:02:10;;;;;;;42.50;23.20;;;9.70;1.00;;;;;;5065373;28;20241;-84
2023/11/21 03:04:35;;;;;;;44.03;23.20;;;9.70;1.00;;;;;;5061326;28;20217;-85
2023/11/21 03:07:01;;;;;;;40.20;23.90;;;9.70;1.00;;;;;;5067561;28;20453;-84
2023/11/21 03:09:27;;;;;;;50.23;24.43;;;9.60;1.00;;;;;;5071186;28;20634;-85
2023/11/21 03:11:53;;;;;;;51.17;24.93;;;9.60;1.00;;;;;;5066448;28;20709;-85
2023/11/21 03:14:19;;;;;;;54.30;28.10;;;9.60;1.00;;;;;;5067261;28;20189;-84
2023/11/21 03:16:45;;;;;;;57.80;29.43;;;9.60;1.00;;;;;;5057768;28;20436;-84
2023/11/21 03:19:11;;;;;;;74.90;33.33;;;9.60;1.00;;;;;;5066750;28;20197;-85
2023/11/21 03:21:36;;;;;;;74.30;30.93;;;9.60;1.00;;;;;;5058057;28;20502;-84
2023/11/21 03:24:02;;;;;;;84.77;30.80;;;9.60;1.00;;;;;;5066998;28;20479;-85
2023/11/21 03:26:29;;;;;;;87.63;34.30;;;9.60;1.00;;;;;;5062778;28;20682;-84
2023/11/21 03:28:55;;;;;;;81.17;31.20;;;9.60;1.00;;;;;;5063677;28;20432;-84
2023/11/21 03:31:21;;;;;;;92.77;34.53;;;9.60;1.00;;;;;;5064178;28;20455;-84
2023/11/21 03:33:47;;;;;;;86.87;33.90;;;9.60;1.00;;;;;;5062298;28;20496;-84
2023/11/21 03:36:14;;;;;;;87.20;32.87;;;9.60;1.00;;;;;;5063115;28;20209;-84
2023/11/21 03:38:40;;;;;;;89.47;32.97;;;9.60;1.00;;;;;;5070788;28;20444;-84
2023/11/21 03:41:06;;;;;;;82.30;33.80;;;9.70;1.00;;;;;;5062203;28;20818;-85
2023/11/21 03:43:31;;;;;;;78.20;31.53;;;9.70;1.00;;;;;;5066529;28;20528;-86
2023/11/21 03:45:57;;;;;;;73.27;32.20;;;9.70;1.00;;;;;;5059626;28;20695;-84
2023/11/21 03:48:22;;;;;;;72.90;30.50;;;9.70;1.00;;;;;;5065522;28;20197;-83
2023/11/21 03:50:48;;;;;;;76.33;31.60;;;9.60;1.00;;;;;;5061180;28;20351;-84
2023/11/21 03:53:14;;;;;;;73.57;28.60;;;9.70;1.00;;;;;;5067611;28;20193;-84
2023/11/21 03:55:39;;;;;;;73.50;30.00;;;9.60;1.00;;;;;;5068825;28;20194;-86
2023/11/21 03:58:05;;;;;;;65.77;28.37;;;9.70;1.00;;;;;;5062196;28;20194;-84
2023/11/21 04:00:31;;;;;;;69.23;28.97;;;9.60;1.00;;;;;;5062941;28;20695;-84
2023/11/21 04:02:56;;;;;;;63.87;29.03;;;9.60;1.00;;;;;;5058639;28;20696;-84
2023/11/21 04:05:23;;;;;;;66.70;29.50;;;9.60;1.00;;;;;;5063292;28;22874;-85
2023/11/21 04:07:50;;;;;;;66.47;28.90;;;9.60;1.00;;;;;;5057016;28;20235;-84
2023/11/21 04:10:16;;;;;;;71.23;32.63;;;9.60;1.00;;;;;;5062831;28;20452;-85
2023/11/21 04:12:42;;;;;;;64.90;28.00;;;9.60;1.00;;;;;;5068788;28;20451;-85
2023/11/21 04:15:08;;;;;;;75.93;30.23;;;9.60;1.00;;;;;;5060616;28;21287;-84
2023/11/21 04:17:35;;;;;;;69.20;30.63;;;9.50;1.00;;;;;;5062232;28;20185;-84
2023/11/21 04:20:00;;;;;;;70.93;29.73;;;9.50;1.00;;;;;;5063529;28;20458;-84
2023/11/21 04:22:26;;;;;;;67.70;32.23;;;9.60;1.00;;;;;;5061113;28;20737;-84
2023/11/21 04:24:51;;;;;;;61.57;31.63;;;9.50;1.00;;;;;;5062409;28;20570;-84
2023/11/21 04:27:19;;;;;;;77.10;33.33;;;9.50;1.00;;;;;;5061295;28;20186;-84
2023/11/21 04:29:45;;;;;;;63.20;33.73;;;9.50;1.00;;;;;;5065420;28;20178;-84
2023/11/21 04:32:10;;;;;;;56.83;29.93;;;9.50;1.00;;;;;;5063516;28;20478;-85
2023/11/21 04:34:36;;;;;;;57.43;32.17;;;9.50;1.00;;;;;;5061519;28;20194;-85
2023/11/21 04:37:03;;;;;;;48.97;26.90;;;9.50;1.00;;;;;;5061927;28;20568;-84
2023/11/21 04:39:28;;;;;;;49.77;26.50;;;9.50;1.00;;;;;;5062734;28;20181;-84
2023/11/21 04:41:54;;;;;;;51.67;28.83;;;9.50;1.00;;;;;;5059109;28;20444;-84
2023/11/21 04:44:19;;;;;;;49.47;26.50;;;9.50;1.00;;;;;;5063252;28;20295;-83
2023/11/21 04:46:45;;;;;;;52.77;27.07;;;9.40;1.00;;;;;;5067282;28;20247;-84
2023/11/21 04:49:10;;;;;;;46.37;25.60;;;9.40;1.00;;;;;;5060062;28;20177;-84
2023/11/21 04:51:36;;;;;;;57.87;27.83;;;9.40;1.00;;;;;;5063283;28;20998;-84
2023/11/21 04:54:02;;;;;;;44.17;24.70;;;9.40;1.00;;;;;;5061220;28;20182;-84
2023/11/21 04:56:27;;;;;;;44.90;27.33;;;9.40;1.00;;;;;;5061852;28;20184;-84
2023/11/21 04:58:53;;;;;;;46.97;24.53;;;9.40;1.00;;;;;;5062899;28;20277;-84
2023/11/21 05:01:19;;;;;;;48.87;26.37;;;9.40;1.00;;;;;;5061618;28;20288;-85
2023/11/21 05:03:44;;;;;;;43.90;25.37;;;9.40;1.00;;;;;;5062729;28;20471;-85
2023/11/21 05:06:10;;;;;;;46.03;25.57;;;9.40;1.00;;;;;;5062777;28;20213;-85
2023/11/21 05:08:36;;;;;;;41.17;26.50;;;9.40;1.00;;;;;;5063979;28;20182;-85
2023/11/21 05:11:02;;;;;;;51.77;27.27;;;9.40;1.00;;;;;;5063563;28;20205;-85
2023/11/21 05:13:28;;;;;;;49.37;25.13;;;9.40;1.00;;;;;;5061115;28;20444;-85
2023/11/21 05:15:56;;;;;;;40.27;24.37;;;9.40;1.00;;;;;;5060113;28;20193;-84
2023/11/21 05:18:22;;;;;;;41.40;23.97;;;9.40;1.00;;;;;;5063450;28;20185;-85
2023/11/21 05:20:48;;;;;;;48.77;26.03;;;9.40;1.50;;;;;;5061830;28;20451;-85
2023/11/21 05:23:14;;;;;;;48.37;24.93;;;9.40;2.20;;;;;;5064357;28;20793;-85
2023/11/21 05:25:41;;;;;;;44.33;24.47;;;9.50;2.70;;;;;;5059824;28;20471;-85
2023/11/21 05:28:06;;;;;;;39.67;23.07;;;9.50;2.70;;;;;;5066284;28;20440;-85
2023/11/21 05:30:32;;;;;;;40.40;24.30;;;9.50;2.80;;;;;;5058804;28;20447;-85
2023/11/21 05:32:58;;;;;;;37.73;23.40;;;9.50;3.30;;;;;;5063844;28;20276;-85
2023/11/21 05:35:23;;;;;;;43.17;24.20;;;9.60;5.10;;;;;;5055704;28;20209;-85
2023/11/21 05:37:48;;;;;;;42.73;23.60;;;9.60;2.00;;;;;;5067031;28;20258;-85
2023/11/21 05:40:14;;;;;;;45.53;25.00;;;9.60;1.90;;;;;;5064423;28;20242;-87
2023/11/21 05:42:40;;;;;;;40.87;22.90;;;9.60;1.00;;;;;;5061908;28;20197;-85
2023/11/21 05:45:10;;;;;;;37.37;23.90;;;9.60;1.00;;;;;;5059268;28;20522;-84
2023/11/21 05:47:40;;;;;;;43.83;24.90;;;9.60;1.00;;;;;;5055814;28;20210;-85
2023/11/21 05:50:10;;;;;;;38.93;22.87;;;9.60;1.00;;;;;;5066034;28;20432;-85
2023/11/21 05:52:36;;;;;;;41.13;22.37;;;9.70;1.00;;;;;;5060747;28;20454;-85
2023/11/21 05:55:04;;;;;;;45.90;24.77;;;9.70;1.00;;;;;;5061514;28;20455;-85
2023/11/21 05:57:30;;;;;;;39.20;22.77;;;9.70;1.00;;;;;;5062754;28;20463;-84
2023/11/21 05:59:56;;;;;;;37.33;22.67;;;9.70;1.00;;;;;;5057651;28;20464;-85
2023/11/21 06:02:21;;;;;;;42.80;22.50;;;9.70;1.00;;;;;;5061579;28;20205;-85
2023/11/21 06:04:47;;;;;;;43.87;24.00;;;9.70;1.00;;;;;;5062972;28;20235;-85
2023/11/21 06:07:12;;;;;;;41.57;23.00;;;9.70;1.00;;;;;;5062179;28;20189;-85
2023/11/21 06:09:38;;;;;;;44.37;23.40;;;9.70;1.00;;;;;;5067063;28;20207;-85
2023/11/21 06:12:04;;;;;;;45.10;21.70;;;9.80;1.00;;;;;;5064435;28;20205;-85
2023/11/21 06:14:29;;;;;;;46.47;25.13;;;9.80;1.00;;;;;;5063330;28;20208;-84
2023/11/21 06:16:56;;;;;;;43.87;23.10;;;9.80;1.00;;;;;;5066018;28;20443;-85
2023/11/21 06:19:21;;;;;;;45.70;22.97;;;9.80;1.00;;;;;;5061507;28;20192;-85
2023/11/21 06:21:47;;;;;;;40.93;23.40;;;9.80;1.00;;;;;;5064121;28;20475;-85
2023/11/21 06:24:15;;;;;;;45.17;25.07;;;9.90;1.00;;;;;;5057325;28;20278;-84
2023/11/21 06:26:41;;;;;;;49.20;24.37;;;9.90;1.00;;;;;;5065686;28;20188;-85
2023/11/21 06:29:06;;;;;;;47.57;26.77;;;9.90;1.00;;;;;;5054000;28;20436;-85
2023/11/21 06:31:32;;;;;;;56.23;27.17;;;9.80;1.00;;;;;;5062298;28;20833;-86
2023/11/21 06:33:59;;;;;;;47.73;25.70;;;9.90;1.00;;;;;;5060317;28;20436;-85
2023/11/21 06:36:26;;;;;;;50.50;27.30;;;9.90;1.00;;;;;;5061345;28;20222;-85
2023/11/21 06:38:52;;;;;;;62.53;28.17;;;9.90;1.00;;;;;;5063808;28;20804;-85
2023/11/21 06:41:17;;;;;;;57.37;27.30;;;9.90;1.00;;;;;;5057683;28;20474;-85
2023/11/21 06:43:46;;;;;;;57.93;27.97;;;9.80;1.00;;;;;;5057006;28;20197;-85
2023/11/21 06:46:14;;;;;;;66.13;30.57;;;9.90;1.00;;;;;;5053369;28;20235;-84
2023/11/21 06:48:43;;;;;;;61.23;29.07;;;9.80;1.00;;;;;;5062459;28;20440;-84
2023/11/21 06:51:08;;;;;;;67.40;30.37;;;9.80;1.00;;;;;;5065221;28;20463;-85
2023/11/21 06:53:36;;;;;;;62.00;28.30;;;9.90;1.00;;;;;;5066594;28;20450;-84
2023/11/21 06:56:02;;;;;;;67.17;29.37;;;9.80;1.00;;;;;;5062791;28;20190;-84
2023/11/21 06:58:27;;;;;;;74.23;34.73;;;9.90;1.00;;;;;;5059167;28;20504;-84
2023/11/21 07:00:53;;;;;;;72.00;29.70;;;9.90;1.00;;;;;;5058265;28;20181;-85
2023/11/21 07:03:19;;;;;;;65.97;29.43;;;9.90;1.00;;;;;;5058694;28;20186;-85
2023/11/21 07:05:45;;;;;;;72.97;30.23;;;10.00;1.00;;;;;;5055534;28;20204;-84
2023/11/21 07:08:10;;;;;;;65.33;30.03;;;10.10;1.00;;;;;;5059416;28;20717;-85
2023/11/21 07:10:36;;;;;;;72.20;28.30;;;10.10;1.00;;;;;;5060312;28;20439;-85
2023/11/21 07:13:02;;;;;;;61.43;29.00;;;10.20;1.00;;;;;;5054992;28;20694;-87
2023/11/21 07:15:28;;;;;;;68.00;29.37;;;10.20;1.00;;;;;;5056008;28;20535;-86
2023/11/21 07:17:53;;;;;;;75.60;31.77;;;10.30;1.00;;;;;;5052639;28;20178;-85
2023/11/21 07:20:19;;;;;;;76.60;31.60;;;10.30;1.00;;;;;;5057265;28;20544;-86
2023/11/21 07:22:45;;;;;;;78.83;31.37;;;10.30;1.00;;;;;;5056136;28;20239;-87
2023/11/21 07:25:11;;;;;;;73.80;33.63;;;10.30;1.00;;;;;;5063660;28;20234;-86
2023/11/21 07:27:37;;;;;;;71.33;30.17;;;10.30;1.00;;;;;;5056312;28;20457;-86
2023/11/21 07:30:07;;;;;;;73.63;29.77;;;10.30;1.00;;;;;;5058409;28;20322;-86
2023/11/21 07:32:33;;;;;;;72.10;30.43;;;10.30;1.00;;;;;;5060575;28;20459;-86
2023/11/21 07:35:01;;;;;;;65.50;29.80;;;10.30;1.00;;;;;;5064311;28;20444;-87
2023/11/21 07:37:28;;;;;;;70.20;30.27;;;10.30;1.00;;;;;;5066477;28;20443;-86
2023/11/21 07:39:56;;;;;;;66.43;29.10;;;10.40;1.00;;;;;;5058745;28;20444;-86
2023/11/21 07:42:23;;;;;;;62.63;30.27;;;10.40;1.00;;;;;;5061139;28;20471;-88
2023/11/21 07:44:50;;;;;;;68.47;30.70;;;10.50;1.00;;;;;;5061438;28;20464;-87
2023/11/21 07:47:15;;;;;;;74.17;31.53;;;10.50;1.00;;;;;;5066930;28;20526;-86
2023/11/21 07:49:43;;;;;;;67.00;27.43;;;10.60;1.00;;;;;;5068338;28;20535;-86
2023/11/21 07:52:09;;;;;;;69.57;26.67;;;10.60;1.00;;;;;;5070783;28;20228;-88
2023/11/21 07:54:35;;;;;;;59.00;28.07;;;10.70;1.00;;;;;;5064068;28;20473;-86
2023/11/21 07:57:01;;;;;;;54.07;25.03;;;10.80;1.00;;;;;;5062784;28;20450;-87
2023/11/21 07:59:27;;;;;;;57.73;25.60;;;10.80;1.00;;;;;;5060054;28;20813;-87
2023/11/21 08:01:52;;;;;;;56.67;25.53;;;11.00;1.00;;;;;;5063573;28;20467;-89
2023/11/21 08:04:24;;;;;;;60.30;25.53;;;11.10;1.00;;;;;;5067931;28;20189;-86
2023/11/21 08:06:49;;;;;;;65.77;23.70;;;11.10;1.00;;;;;;5059116;28;20251;-87
2023/11/21 08:09:17;;;;;;;58.73;24.50;;;11.20;1.00;;;;;;5064086;28;20436;-87
2023/11/21 08:11:46;;;;;;;60.23;26.77;;;11.10;1.00;;;;;;5064994;28;20281;-86
2023/11/21 08:14:12;;;;;;;71.53;26.50;;;11.10;1.00;;;;;;5065572;28;20443;-88
2023/11/21 08:16:37;;;;;;;78.13;26.93;;;11.10;1.00;;;;;;5066228;28;20450;-87
2023/11/21 08:19:06;;;;;;;66.70;26.70;;;11.20;1.00;;;;;;5065347;28;20681;-88
2023/11/21 08:21:32;;;;;;;67.97;26.17;;;11.10;1.00;;;;;;5073927;28;20694;-87
2023/11/21 08:24:00;;;;;;;73.47;26.83;;;11.20;1.00;;;;;;5072238;28;20541;-88
2023/11/21 08:26:31;;;;;;;56.53;23.93;;;11.20;1.00;;;;;;5060554;28;20209;-89
2023/11/21 08:29:06;;;;;;;55.73;21.97;;;11.30;1.00;;;;;;5070133;28;20435;-87
2023/11/21 08:31:37;;;;;;;46.03;19.80;;;11.40;1.00;;;;;;5084107;28;20447;-88
2023/11/21 08:34:03;;;;;;;59.37;23.40;;;11.40;1.00;;;;;;5068967;28;20440;-87
2023/11/21 08:36:32;;;;;;;53.23;21.63;;;11.40;1.00;;;;;;5067833;28;20443;-86
2023/11/21 08:38:58;;;;;;;51.67;22.17;;;11.40;1.00;;;;;;5069239;28;20450;-88
2023/11/21 08:41:30;;;;;;;57.83;20.43;;;11.40;1.00;;;;;;5059597;28;21414;-87
2023/11/21 08:43:58;;;;;;;64.13;21.80;;;11.40;1.00;;;;;;5066250;28;21842;-88
2023/11/21 08:46:29;;;;;;;53.00;22.23;;;11.40;1.00;;;;;;5060127;28;20463;-87
2023/11/21 08:49:03;;;;;;;57.90;21.90;;;11.50;1.00;;;;;;5066614;28;21035;-88
2023/11/21 08:51:34;;;;;;;60.03;22.57;;;11.70;1.00;;;;;;5065180;28;20530;-88
2023/11/21 08:54:02;;;;;;;58.60;23.97;;;11.70;1.00;;;;;;5061058;28;20455;-87
2023/11/21 08:56:36;;;;;;;53.70;21.57;;;11.80;1.00;;;;;;5069029;28;20465;-88
2023/11/21 08:59:02;;;;;;;44.80;17.60;;;11.80;1.00;;;;;;5067131;28;20496;-87
2023/11/21 09:01:31;;;;;;;49.93;18.00;;;11.80;1.00;;;;;;5074033;28;21023;-87
2023/11/21 09:04:00;;;;;;;51.53;19.20;;;11.80;1.00;;;;;;5070935;28;20430;-86
2023/11/21 09:06:25;;;;;;;53.60;19.73;;;11.80;1.00;;;;;;5074193;28;20485;-87
2023/11/21 09:08:51;;;;;;;41.40;19.67;;;11.80;1.00;;;;;;5065859;28;20891;-85
2023/11/21 09:11:17;;;;;;;42.23;17.20;;;11.90;1.00;;;;;;5069344;28;20196;-87
2023/11/21 09:13:43;;;;;;;46.33;18.10;;;11.90;1.00;;;;;;5073951;28;20238;-86
2023/11/21 09:16:08;;;;;;;51.20;22.00;;;12.00;99.90;;;;;;5068724;28;20582;-87
2023/11/21 09:18:34;;;;;;;58.53;21.43;;;12.10;99.90;;;;;;5074391;28;20181;-86
2023/11/21 09:21:00;;;;;;;58.07;21.00;;;12.10;99.90;;;;;;5066935;28;20206;-87
2023/11/21 09:23:25;;;;;;;50.77;20.73;;;12.10;99.90;;;;;;5080504;28;20209;-87
2023/11/21 09:25:56;;;;;;;55.80;22.03;;;12.10;99.90;;;;;;5073060;28;20205;-86
2023/11/21 09:28:42;;;;;;;53.80;21.47;;;12.10;99.90;;;;;;5066231;28;20276;-88
2023/11/21 09:31:09;;;;;;;56.63;21.40;;;12.00;99.90;;;;;;5057588;28;20542;-87
2023/11/21 09:33:35;;;;;;;58.50;20.77;;;12.00;99.90;;;;;;5070583;28;20427;-86
2023/11/21 09:36:04;;;;;;;40.73;18.07;;;11.90;99.90;;;;;;5074115;28;20442;-86
2023/11/21 09:38:30;;;;;;;48.17;18.77;;;11.90;99.90;;;;;;5072535;28;20205;-87
2023/11/21 09:40:58;;;;;;;41.77;18.40;;;11.90;99.90;;;;;;5071916;28;20458;-87
2023/11/21 09:43:27;;;;;;;43.07;16.03;;;12.00;99.90;;;;;;5068566;28;20185;-86
2023/11/21 09:46:03;;;;;;;41.97;16.80;;;12.00;99.90;;;;;;5072203;28;20467;-86
2023/11/21 09:48:30;;;;;;;48.00;17.97;;;12.00;99.90;;;;;;5068098;28;20564;-84
2023/11/21 09:50:56;;;;;;;46.77;18.20;;;12.00;99.90;;;;;;5077521;28;20420;-85
2023/11/21 09:53:24;;;;;;;43.50;17.70;;;12.10;99.90;;;;;;5070267;28;20432;-84
2023/11/21 09:55:54;;;;;;;47.13;17.17;;;12.20;99.90;;;;;;5076788;28;20432;-85
2023/11/21 09:58:24;;;;;;;39.73;17.60;;;12.20;99.90;;;;;;5063338;28;20489;-85
2023/11/21 10:00:53;;;;;;;49.50;18.63;;;12.30;99.90;;;;;;5075902;28;20420;-86
2023/11/21 10:03:18;;;;;;;37.77;17.30;;;12.50;99.90;;;;;;5076164;28;20777;-86
2023/11/21 10:05:48;;;;;;;47.10;19.53;;;12.60;99.90;;;;;;5077418;28;20567;-85
2023/11/21 10:08:14;;;;;;;49.70;19.10;;;12.60;99.90;;;;;;5074503;28;20185;-83
2023/11/21 10:10:47;;;;;;;39.43;18.13;;;12.70;99.90;;;;;;5084828;28;20503;-83
2023/11/21 10:13:17;;;;;;;41.07;17.77;;;12.70;1.00;;;;;;5078185;28;21053;-87
2023/11/21 10:15:48;;;;;;;38.10;16.00;;;12.70;1.00;;;;;;5076840;28;20420;-85
2023/11/21 10:18:15;;;;;;;33.83;17.00;;;12.70;1.00;;;;;;5078547;28;21002;-85
2023/11/21 10:20:41;;;;;;;32.73;16.23;;;12.70;1.00;;;;;;5070350;28;20799;-85
2023/11/21 10:23:11;;;;;;;30.97;15.97;;;12.70;1.00;;;;;;5061920;28;20519;-85
2023/11/21 10:25:37;;;;;;;38.53;17.67;;;12.70;1.00;;;;;;5068458;28;20457;-85
2023/11/21 10:28:07;;;;;;;44.40;19.20;;;12.70;1.00;;;;;;5064761;28;20440;-84
2023/11/21 10:30:37;;;;;;;39.40;18.93;;;12.80;1.00;;;;;;5085843;28;20426;-85
2023/11/21 10:33:04;;;;;;;42.87;20.20;;;12.80;1.00;;;;;;5075141;28;20459;-86
2023/11/21 10:35:50;;;;;;;41.83;20.80;;;12.80;1.00;;;;;;5090336;22;20505;-86
2023/11/21 10:41:52;;;;;;;46.47;19.73;;;13.10;99.90;;;;;;5067585;28;20419;-86
2023/11/21 10:44:34;;;;;;;41.33;20.33;;;13.20;1.00;;;;;;5073145;28;20504;-87
2023/11/21 10:47:00;;;;;;;40.60;19.80;;;13.40;99.90;;;;;;5080905;28;20454;-85
2023/11/21 10:49:27;;;;;;;40.97;20.40;;;13.50;1.00;;;;;;5064352;28;20443;-86
2023/11/21 10:51:56;;;;;;;38.10;19.60;;;13.70;99.90;;;;;;5057586;28;20428;-87
2023/11/21 10:54:32;;;;;;;38.97;18.20;;;13.90;99.90;;;;;;5100621;28;20431;-85
2023/11/21 10:57:40;;;;;;;29.97;16.73;;;14.00;1.00;;;;;;5064123;28;20435;-86
2023/11/21 11:00:07;;;;;;;34.53;16.67;;;14.20;1.00;;;;;;5075865;28;20421;-85
2023/11/21 11:02:34;;;;;;;35.27;17.23;;;14.20;99.90;;;;;;5057064;28;20443;-86
2023/11/21 11:05:11;;;;;;;30.37;15.20;;;14.20;99.90;;;;;;5067313;28;20471;-86
2023/11/21 11:07:43;;;;;;;32.10;15.00;;;14.00;1.00;;;;;;5057855;28;20439;-86
2023/11/21 11:10:14;;;;;;;29.13;14.40;;;13.80;1.00;;;;;;5079645;28;20423;-86
2023/11/21 11:13:19;;;;;;;32.63;15.67;;;13.70;99.90;;;;;;5064755;28;20411;-86
2023/11/21 11:15:59;;;;;;;40.27;16.57;;;13.80;1.00;;;;;;5063250;28;20463;-86
2023/11/21 11:18:30;;;;;;;31.77;16.00;;;14.00;99.90;;;;;;5068624;28;20439;-85
2023/11/21 11:21:27;;;;;;;38.17;14.73;;;14.20;99.90;;;;;;5065904;28;20486;-85
2023/11/21 11:24:16;;;;;;;33.53;14.70;;;14.40;1.00;;;;;;5055610;28;20432;-86
2023/11/21 11:26:56;;;;;;;25.50;14.57;;;14.30;99.90;;;;;;5066093;28;20987;-86
2023/11/21 11:29:36;;;;;;;31.10;14.80;;;14.20;99.90;;;;;;5087378;28;20848;-84
2023/11/21 11:32:34;;;;;;;26.90;13.23;;;14.20;99.90;;;;;;5063171;28;20418;-84
2023/11/21 11:35:10;;;;;;;23.53;13.40;;;14.10;99.90;;;;;;5063994;28;20507;-85
2023/11/21 11:37:35;;;;;;;27.60;14.73;;;14.10;26.60;;;;;;5060195;28;20427;-85
2023/11/21 11:40:05;;;;;;;31.43;14.60;;;14.20;35.90;;;;;;5064350;28;20485;-85
2023/11/21 11:42:32;;;;;;;29.63;14.40;;;14.50;1.00;;;;;;5079414;28;20203;-86
2023/11/21 11:44:58;;;;;;;36.23;14.73;;;14.70;1.00;;;;;;5072432;28;20457;-85
2023/11/21 11:47:32;;;;;;;29.73;14.53;;;14.90;1.00;;;;;;5063083;28;20464;-85
2023/11/21 11:50:12;;;;;;;30.97;13.30;;;15.00;99.90;;;;;;5067943;28;20194;-86
2023/11/21 11:52:39;;;;;;;27.50;14.60;;;15.10;1.00;;;;;;5064166;28;20466;-86
2023/11/21 11:55:11;;;;;;;27.47;13.70;;;15.30;99.90;;;;;;5062203;28;20815;-86
2023/11/21 11:57:38;;;;;;;26.17;12.70;;;15.40;90.20;;;;;;5073751;28;20440;-86
2023/11/21 12:00:20;;;;;;;22.50;12.73;;;15.80;75.10;;;;;;5064912;28;20430;-87
2023/11/21 12:02:54;;;;;;;28.37;12.27;;;16.20;1.00;;;;;;5068989;28;20892;-86
2023/11/21 12:05:21;;;;;;;23.57;12.23;;;16.30;99.90;;;;;;5062484;28;20773;-85
2023/11/21 12:07:49;;;;;;;27.20;12.63;;;16.40;99.90;;;;;;5067222;28;20435;-86
2023/11/21 12:10:19;;;;;;;19.40;12.47;;;16.40;99.90;;;;;;5065492;28;20471;-88
2023/11/21 12:12:50;;;;;;;20.40;11.33;;;16.90;99.90;;;;;;5068438;28;20435;-87
2023/11/21 12:15:16;;;;;;;19.60;10.87;;;18.00;1.00;;;;;;5053628;28;20455;-86
2023/11/21 12:17:45;;;;;;;20.10;11.13;;;19.10;1.00;;;;;;5059822;28;20498;-86
2023/11/21 12:20:17;;;;;;;21.93;11.60;;;20.00;1.00;;;;;;5075144;28;20449;-88
2023/11/21 12:22:49;;;;;;;20.83;11.60;;;20.70;1.00;;;;;;5063633;28;20988;-86
2023/11/21 12:25:19;;;;;;;21.90;11.80;;;20.70;1.00;;;;;;5068686;28;21003;-87
2023/11/21 12:27:49;;;;;;;20.60;12.50;;;20.50;1.00;;;;;;5075292;28;20435;-87
2023/11/21 12:30:17;;;;;;;23.33;12.60;;;20.10;99.90;;;;;;5066802;28;20489;-85
2023/11/21 12:32:45;;;;;;;21.43;13.23;;;19.60;99.90;;;;;;5068372;28;21026;-87
2023/11/21 12:35:12;;;;;;;18.77;11.90;;;18.80;99.90;;;;;;5077522;28;20462;-86
2023/11/21 12:37:44;;;;;;;20.20;11.57;;;18.30;99.90;;;;;;5073640;28;20855;-86
2023/11/21 12:40:17;;;;;;;18.60;10.40;;;17.80;1.00;;;;;;5077696;28;20515;-85
2023/11/21 12:42:48;;;;;;;22.97;11.87;;;17.40;1.00;;;;;;5065161;28;20514;-87
2023/11/21 12:45:17;;;;;;;22.67;11.67;;;17.00;1.00;;;;;;5069486;28;20928;-87
2023/11/21 12:48:07;;;;;;;19.80;11.40;;;16.60;1.00;;;;;;5058242;28;20424;-87